Time;durP1;ratioP1;P1;durP2;ratioP2;P2;SDS_P1;SDS_P2;PMS_P1;PMS_P2;Temp;Humidity;BMP_temperature;BMP_pressure;BME280_temperature;BME280_humidity;BME280_pressure;Samples;Min_cycle;Max_cycle;Signal;HPM_P1;HPM_P2
2022/12/29 00:01:20;;;;;;;;;;;3.50;99.90;;;;;;5020887;28;19909;-77
2022/12/29 00:03:46;;;;;;;;;;;4.20;99.90;;;;;;5021131;28;19992;-77
2022/12/29 00:06:12;;;;;;;;;;;3.60;99.90;;;;;;5021340;28;19992;-79
2022/12/29 00:08:40;;;;;;;;;;;3.60;99.90;;;;;;5020832;28;19936;-80
2022/12/29 00:11:10;;;;;;;;;;;3.60;99.90;;;;;;5021158;28;19952;-78
2022/12/29 00:16:38;;;;;;;;;;;3.60;99.90;;;;;;5024486;28;19971;-78
2022/12/29 00:19:04;;;;;;;;;;;3.70;99.90;;;;;;5002458;28;19917;-79
2022/12/29 00:35:11;;;;;;;;;;;3.30;99.90;;;;;;5043025;28;19911;-78
2022/12/29 00:45:58;;;;;;;;;;;3.20;99.90;;;;;;5042359;28;19911;-81
2022/12/29 00:51:08;;;;;;;;;;;3.20;99.90;;;;;;5040359;28;19927;-80
2022/12/29 00:53:34;;;;;;;;;;;3.30;99.90;;;;;;5040481;28;19901;-81
2022/12/29 00:56:00;;;;;;;;;;;3.30;99.90;;;;;;5040299;28;20582;-77
2022/12/29 00:58:29;;;;;;;;;;;3.30;99.90;;;;;;5040018;28;19919;-79
2022/12/29 01:01:08;;;;;;;;;;;3.30;99.90;;;;;;5040406;28;20476;-80
2022/12/29 01:03:34;;;;;;;;;;;3.30;99.90;;;;;;5040878;28;19905;-79
2022/12/29 01:06:02;;;;;;;;;;;3.20;99.90;;;;;;5040162;28;20561;-78
2022/12/29 01:08:28;;;;;;;;;;;3.20;99.90;;;;;;5042002;28;20102;-78
2022/12/29 01:10:57;;;;;;;;;;;3.10;99.90;;;;;;5041258;28;19905;-79
2022/12/29 01:13:23;;;;;;;;;;;3.10;99.90;;;;;;5039783;28;19907;-78
2022/12/29 01:15:49;;;;;;;;;;;5.00;99.90;;;;;;5039631;28;19905;-81
2022/12/29 01:18:15;;;;;;;;;;;3.40;99.90;;;;;;5040962;28;19913;-80
2022/12/29 01:20:41;;;;;;;;;;;3.10;99.90;;;;;;5022719;28;19967;-79
2022/12/29 01:23:08;;;;;;;;;;;3.10;99.90;;;;;;5040101;28;20578;-77
2022/12/29 01:25:34;;;;;;;;;;;3.00;99.90;;;;;;5039809;28;20543;-78
2022/12/29 01:27:59;;;;;;;;;;;3.00;99.90;;;;;;5039576;28;19938;-79
2022/12/29 01:30:25;;;;;;;;;;;3.00;99.90;;;;;;5042505;28;19912;-79
2022/12/29 01:32:50;;;;;;;;;;;3.00;99.90;;;;;;5040195;28;19999;-79
2022/12/29 01:35:16;;;;;;;;;;;1.10;99.90;;;;;;5039884;28;19905;-78
2022/12/29 01:37:42;;;;;;;;;;;2.90;99.90;;;;;;5041150;28;19920;-79
2022/12/29 01:40:08;;;;;;;;;;;2.90;99.90;;;;;;5044649;28;19924;-79
2022/12/29 01:42:33;;;;;;;;;;;3.00;99.90;;;;;;5045059;28;19905;-77
2022/12/29 01:45:03;;;;;;;;;;;3.00;99.90;;;;;;5024400;28;19954;-78
2022/12/29 01:47:38;;;;;;;;;;;3.00;99.90;;;;;;5044366;28;19904;-79
2022/12/29 01:50:27;;;;;;;;;;;2.90;99.90;;;;;;5043087;28;19920;-80
2022/12/29 01:53:08;;;;;;;;;;;2.90;99.90;;;;;;5033899;28;19908;-78
2022/12/29 01:55:37;;;;;;;;;;;2.90;99.90;;;;;;5041902;28;19901;-79
2022/12/29 01:58:04;;;;;;;;;;;2.90;99.90;;;;;;5042656;28;20403;-81
2022/12/29 02:00:30;;;;;;;;;;;2.90;99.90;;;;;;5043980;28;19912;-79
2022/12/29 02:02:56;;;;;;;;;;;2.90;99.90;;;;;;5039381;28;19900;-79
2022/12/29 02:05:31;;;;;;;;;;;2.80;99.90;;;;;;5039308;28;19904;-78
2022/12/29 02:07:57;;;;;;;;;;;2.80;99.90;;;;;;5039088;28;19915;-79
2022/12/29 02:10:24;;;;;;;;;;;2.80;99.90;;;;;;5038706;28;19913;-79
2022/12/29 02:12:50;;;;;;;;;;;2.70;99.90;;;;;;5038262;28;20498;-78
2022/12/29 02:15:16;;;;;;;;;;;2.40;99.90;;;;;;5038793;28;19920;-78
2022/12/29 02:17:45;;;;;;;;;;;3.10;99.90;;;;;;5024345;28;19909;-80
2022/12/29 02:20:27;;;;;;;;;;;2.80;99.90;;;;;;5042925;28;20635;-79
2022/12/29 02:22:59;;;;;;;;;;;2.80;99.90;;;;;;5043776;28;19905;-80
2022/12/29 02:25:27;;;;;;;;;;;2.80;99.90;;;;;;5047685;28;19900;-80
2022/12/29 02:28:22;;;;;;;;;;;2.80;99.90;;;;;;5055935;28;19909;-79
2022/12/29 02:31:06;;;;;;;;;;;2.90;99.90;;;;;;4988616;28;19953;-78
2022/12/29 02:33:50;;;;;;;;;;;2.80;99.90;;;;;;4988347;28;19937;-80
2022/12/29 02:36:19;;;;;;;;;;;3.00;99.90;;;;;;4984260;28;19913;-80
2022/12/29 02:39:03;;;;;;;;;;;3.00;99.90;;;;;;4982960;28;19922;-78
2022/12/29 02:41:43;;;;;;;;;;;2.90;99.90;;;;;;4990954;28;19913;-78
2022/12/29 02:44:14;;;;;;;;;;;2.80;99.90;;;;;;4988430;28;19968;-78
2022/12/29 02:46:43;;;;;;;;;;;2.80;99.90;;;;;;4981317;28;20057;-78
2022/12/29 02:49:17;;;;;;;;;;;2.70;99.90;;;;;;4980809;28;19954;-79
2022/12/29 02:51:46;;;;;;;;;;;2.80;99.90;;;;;;4980545;28;19964;-78
2022/12/29 02:56:56;;;;;;;;;;;2.70;99.90;;;;;;4979443;28;20350;-78
2022/12/29 02:59:22;;;;;;;;;;;2.60;99.90;;;;;;4979974;28;19910;-79
2022/12/29 03:02:20;;;;;;;;;;;2.60;99.90;;;;;;4979895;28;19948;-77
2022/12/29 03:05:04;;;;;;;;;;;2.60;99.90;;;;;;4979520;28;19901;-78
2022/12/29 03:07:30;;;;;;;;;;;2.60;99.90;;;;;;5007338;28;19948;-79
2022/12/29 03:09:58;;;;;;;;;;;2.60;99.90;;;;;;5044865;28;19959;-78
2022/12/29 03:16:03;;;;;;;;;;;2.60;99.90;;;;;;5044496;28;20008;-78
2022/12/29 03:18:28;;;;;;;;;;;2.70;99.90;;;;;;5044434;28;20547;-79
2022/12/29 03:20:55;;;;;;;;;;;3.00;99.90;;;;;;5043192;28;19909;-79
2022/12/29 03:23:21;;;;;;;;;;;2.60;99.90;;;;;;5044157;28;19936;-79
2022/12/29 03:25:50;;;;;;;;;;;2.60;99.90;;;;;;5043557;28;20140;-78
2022/12/29 03:28:23;;;;;;;;;;;2.60;99.90;;;;;;5042450;28;19908;-78
2022/12/29 03:30:49;;;;;;;;;;;2.60;99.90;;;;;;5042053;28;20643;-78
2022/12/29 03:33:17;;;;;;;;;;;2.60;99.90;;;;;;5041815;28;19905;-80
2022/12/29 03:35:44;;;;;;;;;;;2.70;99.90;;;;;;5042054;28;19928;-79
2022/12/29 03:38:13;;;;;;;;;;;2.70;99.90;;;;;;5041975;28;19915;-79
2022/12/29 03:40:43;;;;;;;;;;;2.60;99.90;;;;;;5042861;28;19920;-78
2022/12/29 03:43:09;;;;;;;;;;;2.60;99.90;;;;;;5042376;28;20649;-77
2022/12/29 03:45:34;;;;;;;;;;;2.60;99.90;;;;;;5042270;28;20459;-78
2022/12/29 03:48:00;;;;;;;;;;;2.60;99.90;;;;;;5043533;28;19904;-78
2022/12/29 03:50:26;;;;;;;;;;;2.50;99.90;;;;;;5043566;28;19912;-78
2022/12/29 03:52:52;;;;;;;;;;;2.50;99.90;;;;;;5042847;28;20048;-79
2022/12/29 03:55:18;;;;;;;;;;;2.50;99.90;;;;;;5041639;28;19975;-79
2022/12/29 03:57:44;;;;;;;;;;;2.50;99.90;;;;;;5040623;28;20597;-79
2022/12/29 04:00:10;;;;;;;;;;;2.50;99.90;;;;;;5041367;28;19905;-78
2022/12/29 04:02:35;;;;;;;;;;;2.50;99.90;;;;;;5040623;28;20138;-79
2022/12/29 04:05:01;;;;;;;;;;;1.10;99.90;;;;;;5041811;28;19955;-78
2022/12/29 04:07:27;;;;;;;;;;;2.40;99.90;;;;;;5041231;28;19939;-78
2022/12/29 04:09:52;;;;;;;;;;;2.50;99.90;;;;;;5041529;28;19919;-79
2022/12/29 04:12:18;;;;;;;;;;;2.40;99.90;;;;;;5041059;28;20022;-78
2022/12/29 04:14:43;;;;;;;;;;;2.40;99.90;;;;;;5022781;28;19905;-78
2022/12/29 04:17:09;;;;;;;;;;;2.40;99.90;;;;;;5045071;28;19916;-78
2022/12/29 04:19:35;;;;;;;;;;;2.50;99.90;;;;;;5025759;28;19909;-77
2022/12/29 04:22:00;;;;;;;;;;;2.50;99.90;;;;;;5021553;28;19948;-78
2022/12/29 04:24:26;;;;;;;;;;;2.40;99.90;;;;;;5021538;28;19938;-79
2022/12/29 04:26:51;;;;;;;;;;;2.40;99.90;;;;;;5039678;28;20466;-78
2022/12/29 04:29:17;;;;;;;;;;;2.40;99.90;;;;;;5039436;28;19908;-78
2022/12/29 04:31:42;;;;;;;;;;;2.50;99.90;;;;;;5021779;28;20575;-79
2022/12/29 04:34:09;;;;;;;;;;;2.40;99.90;;;;;;5039407;28;19988;-79
2022/12/29 04:36:35;;;;;;;;;;;2.40;99.90;;;;;;5039814;28;19962;-79
2022/12/29 04:39:01;;;;;;;;;;;2.40;99.90;;;;;;5022388;28;19917;-77
2022/12/29 04:41:26;;;;;;;;;;;2.30;99.90;;;;;;5039956;28;19905;-78
2022/12/29 04:43:52;;;;;;;;;;;2.40;99.90;;;;;;5039686;28;20584;-79
2022/12/29 04:46:17;;;;;;;;;;;2.40;99.90;;;;;;5039405;28;19915;-78
2022/12/29 04:48:43;;;;;;;;;;;2.40;99.90;;;;;;5040147;28;19904;-79
2022/12/29 04:51:09;;;;;;;;;;;2.40;99.90;;;;;;5040516;28;20450;-78
2022/12/29 04:53:34;;;;;;;;;;;2.40;99.90;;;;;;5039700;28;19939;-78
2022/12/29 04:56:00;;;;;;;;;;;2.50;99.90;;;;;;5043605;28;20602;-78
2022/12/29 04:58:25;;;;;;;;;;;2.40;99.90;;;;;;5043937;28;19908;-78
2022/12/29 05:00:51;;;;;;;;;;;2.50;99.90;;;;;;5026827;28;19905;-79
2022/12/29 05:03:17;;;;;;;;;;;2.50;99.90;;;;;;5046612;28;19904;-78
2022/12/29 05:05:43;;;;;;;;;;;2.50;99.90;;;;;;5031549;28;19968;-79
2022/12/29 05:08:08;;;;;;;;;;;2.50;99.90;;;;;;5050165;28;19935;-79
2022/12/29 05:10:34;;;;;;;;;;;2.50;99.90;;;;;;5048748;28;20118;-79
2022/12/29 05:13:00;;;;;;;;;;;2.50;99.90;;;;;;5049754;28;19904;-78
2022/12/29 05:15:26;;;;;;;;;;;4.10;99.90;;;;;;5050177;28;19936;-79
2022/12/29 05:17:52;;;;;;;;;;;2.60;99.90;;;;;;5049902;28;19915;-80
2022/12/29 05:20:17;;;;;;;;;;;2.60;99.90;;;;;;5050896;28;20279;-79
2022/12/29 05:22:43;;;;;;;;;;;2.70;99.90;;;;;;5042428;28;19954;-79
2022/12/29 05:25:09;;;;;;;;;;;2.70;99.90;;;;;;5043712;28;20059;-78
2022/12/29 05:27:34;;;;;;;;;;;2.70;99.90;;;;;;5033180;28;19948;-78
2022/12/29 05:30:00;;;;;;;;;;;2.70;99.90;;;;;;5048520;28;19901;-79
2022/12/29 05:32:26;;;;;;;;;;;2.80;99.90;;;;;;5023371;28;19908;-78
2022/12/29 05:34:51;;;;;;;;;;;2.90;99.90;;;;;;5047597;28;19901;-78
2022/12/29 05:37:17;;;;;;;;;;;2.90;99.90;;;;;;5048265;28;19901;-78
2022/12/29 05:39:42;;;;;;;;;;;2.90;99.90;;;;;;5042340;28;20007;-78
2022/12/29 05:42:08;;;;;;;;;;;3.00;99.90;;;;;;5042437;28;19904;-79
2022/12/29 05:44:34;;;;;;;;;;;3.10;99.90;;;;;;5042195;28;20569;-78
2022/12/29 05:46:59;;;;;;;;;;;3.10;99.90;;;;;;5043241;28;20467;-79
2022/12/29 05:49:25;;;;;;;;;;;3.10;99.90;;;;;;5040181;28;19959;-78
2022/12/29 05:51:50;;;;;;;;;;;3.20;99.90;;;;;;5041677;28;19912;-79
2022/12/29 05:54:16;;;;;;;;;;;3.10;99.90;;;;;;5043602;28;20050;-79
2022/12/29 05:56:42;;;;;;;;;;;3.20;99.90;;;;;;5043443;28;19900;-77
2022/12/29 05:59:07;;;;;;;;;;;3.20;99.90;;;;;;5043490;28;19912;-77
2022/12/29 06:01:34;;;;;;;;;;;3.20;99.90;;;;;;5044701;28;19905;-78
2022/12/29 06:03:59;;;;;;;;;;;3.10;99.90;;;;;;5026064;28;19930;-78
2022/12/29 06:06:25;;;;;;;;;;;3.10;99.90;;;;;;5044366;28;19904;-79
2022/12/29 06:08:51;;;;;;;;;;;3.10;99.90;;;;;;5045053;28;20585;-78
2022/12/29 06:11:16;;;;;;;;;;;3.20;99.90;;;;;;5044746;28;19907;-79
2022/12/29 06:13:44;;;;;;;;;;;3.10;99.90;;;;;;5049387;28;20119;-78
2022/12/29 06:16:10;;;;;;;;;;;3.10;99.90;;;;;;5050258;28;19999;-77
2022/12/29 06:18:36;;;;;;;;;;;3.00;99.90;;;;;;5046149;28;19992;-77
2022/12/29 06:21:03;;;;;;;;;;;3.00;99.90;;;;;;5046581;28;19905;-79
2022/12/29 06:23:29;;;;;;;;;;;3.00;99.90;;;;;;5045765;28;19958;-78
2022/12/29 06:25:55;;;;;;;;;;;3.10;99.90;;;;;;5045524;28;19904;-78
2022/12/29 06:28:21;;;;;;;;;;;2.80;99.90;;;;;;5045656;28;20574;-78
2022/12/29 06:30:48;;;;;;;;;;;3.30;99.90;;;;;;5047860;28;19980;-78
2022/12/29 06:33:15;;;;;;;;;;;3.10;99.90;;;;;;5028404;28;19915;-79
2022/12/29 06:35:45;;;;;;;;;;;3.20;99.90;;;;;;5044976;28;20485;-79
2022/12/29 06:38:11;;;;;;;;;;;3.30;99.90;;;;;;5047720;28;19930;-78
2022/12/29 06:40:36;;;;;;;;;;;3.30;99.90;;;;;;5047495;28;20000;-78
2022/12/29 06:43:02;;;;;;;;;;;3.50;99.90;;;;;;5049052;28;20030;-79
2022/12/29 06:45:28;;;;;;;;;;;3.40;99.90;;;;;;5049968;28;19909;-78
2022/12/29 06:47:53;;;;;;;;;;;3.40;99.90;;;;;;5050380;28;19991;-78
2022/12/29 06:50:19;;;;;;;;;;;3.30;99.90;;;;;;5050972;28;19917;-78
2022/12/29 06:52:44;;;;;;;;;;;3.10;99.90;;;;;;5049878;28;19958;-80
2022/12/29 06:55:10;;;;;;;;;;;3.10;99.90;;;;;;5048236;28;19912;-78
2022/12/29 06:57:36;;;;;;;;;;;3.20;99.90;;;;;;5044160;28;20478;-79
2022/12/29 07:00:02;;;;;;;;;;;3.20;99.90;;;;;;5043638;28;19911;-80
2022/12/29 07:02:28;;;;;;;;;;;3.30;99.90;;;;;;5025379;28;19905;-79
2022/12/29 07:04:53;;;;;;;;;;;3.30;99.90;;;;;;5042657;28;19904;-78
2022/12/29 07:07:19;;;;;;;;;;;3.30;99.90;;;;;;5025190;28;19909;-79
2022/12/29 07:09:46;;;;;;;;;;;3.40;99.90;;;;;;5043445;28;20479;-79
2022/12/29 07:12:12;;;;;;;;;;;3.40;99.90;;;;;;5042884;28;19990;-78
2022/12/29 07:14:37;;;;;;;;;;;3.50;99.90;;;;;;5025346;28;20547;-79
2022/12/29 07:17:06;;;;;;;;;;;3.60;99.90;;;;;;5042517;28;19905;-79
2022/12/29 07:19:32;;;;;;;;;;;3.60;99.90;;;;;;5024297;28;20428;-78
2022/12/29 07:21:58;;;;;;;;;;;2.60;99.90;;;;;;5043100;28;20210;-78
2022/12/29 07:24:25;;;;;;;;;;;3.80;99.90;;;;;;5044145;28;20559;-78
2022/12/29 07:26:51;;;;;;;;;;;3.40;99.90;;;;;;5044449;28;20527;-79
2022/12/29 07:29:17;;;;;;;;;;;3.80;99.90;;;;;;5044391;28;19900;-78
2022/12/29 07:31:42;;;;;;;;;;;3.90;99.90;;;;;;5044505;28;19909;-80
2022/12/29 07:34:08;;;;;;;;;;;3.90;99.90;;;;;;5045161;28;19909;-79
2022/12/29 07:36:34;;;;;;;;;;;4.00;99.90;;;;;;5045021;28;19919;-77
2022/12/29 07:39:00;;;;;;;;;;;4.00;99.90;;;;;;5045500;28;19924;-78
2022/12/29 07:41:25;;;;;;;;;;;4.00;99.90;;;;;;5046600;28;20568;-78
2022/12/29 07:43:51;;;;;;;;;;;4.00;99.90;;;;;;5052336;28;19916;-78
2022/12/29 07:46:16;;;;;;;;;;;4.00;99.90;;;;;;5054407;28;20586;-79
2022/12/29 07:48:42;;;;;;;;;;;4.10;99.90;;;;;;5052380;28;20027;-81
2022/12/29 07:51:08;;;;;;;;;;;4.10;99.90;;;;;;5051838;28;19921;-80
2022/12/29 07:53:33;;;;;;;;;;;4.30;99.90;;;;;;5042714;28;20388;-79
2022/12/29 07:55:59;;;;;;;;;;;4.30;99.90;;;;;;5040769;28;19905;-78
2022/12/29 07:58:24;;;;;;;;;;;4.30;99.90;;;;;;5044966;28;20005;-78
2022/12/29 08:00:54;;;;;;;;;;;4.30;99.90;;;;;;5042436;28;20129;-78
2022/12/29 08:03:19;;;;;;;;;;;4.40;99.90;;;;;;5042752;28;19905;-79
2022/12/29 08:05:45;;;;;;;;;;;4.40;99.90;;;;;;5043484;28;19911;-78
2022/12/29 08:08:11;;;;;;;;;;;4.50;99.90;;;;;;5043687;28;19916;-80
2022/12/29 08:10:36;;;;;;;;;;;6.00;99.90;;;;;;5044726;28;19963;-80
2022/12/29 08:13:02;;;;;;;;;;;4.60;99.90;;;;;;5043855;28;19908;-77
2022/12/29 08:15:27;;;;;;;;;;;4.80;99.90;;;;;;5045031;28;20173;-78
2022/12/29 08:17:53;;;;;;;;;;;4.80;99.90;;;;;;5044645;28;19968;-79
2022/12/29 08:20:18;;;;;;;;;;;5.30;99.90;;;;;;5046973;28;19908;-74
2022/12/29 08:22:44;;;;;;;;;;;5.10;99.90;;;;;;5052931;28;20513;-79
2022/12/29 08:25:10;;;;;;;;;;;5.20;99.90;;;;;;5051137;28;19977;-79
2022/12/29 08:27:35;;;;;;;;;;;5.30;99.90;;;;;;5052549;28;20373;-80
2022/12/29 08:30:01;;;;;;;;;;;5.40;99.90;;;;;;5048795;28;19901;-80
2022/12/29 08:32:29;;;;;;;;;;;5.50;99.90;;;;;;5048189;28;19916;-78
2022/12/29 08:34:55;;;;;;;;;;;5.40;99.90;;;;;;5026871;28;19912;-77
2022/12/29 08:37:21;;;;;;;;;;;5.60;99.90;;;;;;5042886;28;20515;-79
2022/12/29 08:39:47;;;;;;;;;;;5.70;99.90;;;;;;5042019;28;20036;-79
2022/12/29 08:42:13;;;;;;;;;;;5.80;99.90;;;;;;5021587;28;20445;-79
2022/12/29 08:44:42;;;;;;;;;;;6.00;99.90;;;;;;5040301;28;19909;-78
2022/12/29 08:47:09;;;;;;;;;;;6.20;99.90;;;;;;5022142;28;19904;-78
2022/12/29 08:49:34;;;;;;;;;;;6.20;99.90;;;;;;5040636;28;20034;-80
2022/12/29 08:52:00;;;;;;;;;;;6.50;99.90;;;;;;5041140;28;20519;-79
2022/12/29 08:54:26;;;;;;;;;;;6.60;99.90;;;;;;5041206;28;19995;-78
2022/12/29 08:56:51;;;;;;;;;;;7.20;99.90;;;;;;5041368;28;19904;-78
2022/12/29 08:59:17;;;;;;;;;;;6.90;99.90;;;;;;5041461;28;19909;-78
2022/12/29 09:01:42;;;;;;;;;;;7.10;99.90;;;;;;5040070;28;19931;-79
2022/12/29 09:04:08;;;;;;;;;;;7.20;99.90;;;;;;5040784;28;19909;-78
2022/12/29 09:06:34;;;;;;;;;;;7.30;99.90;;;;;;5040380;28;20599;-78
2022/12/29 09:09:00;;;;;;;;;;;7.40;99.90;;;;;;5021949;28;19919;-78
2022/12/29 09:11:25;;;;;;;;;;;7.60;99.90;;;;;;5040584;28;19908;-79
2022/12/29 09:13:52;;;;;;;;;;;7.60;99.90;;;;;;5042333;28;19905;-78
2022/12/29 09:16:24;;;;;;;;;;;7.80;99.90;;;;;;5040265;28;19912;-78
2022/12/29 09:18:50;;;;;;;;;;;7.50;99.90;;;;;;5021193;28;19932;-80
2022/12/29 09:21:16;;;;;;;;;;;8.10;99.90;;;;;;5022564;28;19913;-78
2022/12/29 09:23:41;;;;;;;;;;;8.30;99.90;;;;;;5040795;28;19912;-78
2022/12/29 09:26:10;;;;;;;;;;;8.50;99.90;;;;;;5022591;28;19920;-79
2022/12/29 09:28:36;;;;;;;;;;;8.60;99.90;;;;;;5040356;28;20646;-78
2022/12/29 09:31:02;;;;;;;;;;;8.70;99.90;;;;;;5041148;28;20041;-79
2022/12/29 09:33:34;;;;;;;;;;;8.90;99.90;;;;;;5041354;28;19901;-78
2022/12/29 09:35:59;;;;;;;;;;;9.40;99.90;;;;;;5024392;28;19915;-79
2022/12/29 09:38:28;;;;;;;;;;;8.90;99.90;;;;;;5027467;28;19913;-75
2022/12/29 09:41:07;;;;;;;;;;;9.00;99.90;;;;;;5045261;28;19939;-76
2022/12/29 09:43:53;;;;;;;;;;;12.20;99.90;;;;;;5039058;28;19901;-75
2022/12/29 09:46:23;;;;;;;;;;;9.00;99.90;;;;;;5039544;28;19904;-76
2022/12/29 09:48:53;;;;;;;;;;;9.10;99.90;;;;;;5025141;28;20562;-77
2022/12/29 09:51:50;;;;;;;;;;;9.00;99.90;;;;;;5008248;28;19929;-75
2022/12/29 09:54:15;;;;;;;;;;;10.70;99.90;;;;;;5010530;28;19906;-78
2022/12/29 09:56:44;;;;;;;;;;;8.30;99.90;;;;;;5012640;28;20550;-77
2022/12/29 09:59:32;;;;;;;;;;;9.40;99.90;;;;;;5014971;28;19929;-77
2022/12/29 10:02:25;;;;;;;;;;;9.30;99.90;;;;;;4978573;28;19916;-77
2022/12/29 10:05:06;;;;;;;;;;;9.90;99.90;;;;;;4998859;28;19890;-76
2022/12/29 10:07:54;;;;;;;;;;;9.80;99.90;;;;;;4990325;28;19912;-76
2022/12/29 10:10:25;;;;;;;;;;;10.90;99.90;;;;;;4996931;28;19901;-76
2022/12/29 10:13:15;;;;;;;;;;;9.90;99.90;;;;;;4995471;28;19902;-76
2022/12/29 10:15:47;;;;;;;;;;;10.00;99.90;;;;;;4996401;28;19997;-81
2022/12/29 10:18:19;;;;;;;;;;;10.20;99.90;;;;;;4994152;28;19924;-78
2022/12/29 10:20:56;;;;;;;;;;;10.40;99.90;;;;;;5027088;28;19905;-79
2022/12/29 10:23:41;;;;;;;;;;;10.40;99.90;;;;;;5015194;28;19901;-79
2022/12/29 10:26:13;;;;;;;;;;;10.40;99.90;;;;;;4933431;29;19965;-77
2022/12/29 10:32:00;;;;;;;;;;;11.20;99.90;;;;;;4948556;28;19921;-80
2022/12/29 10:34:35;;;;;;;;;;;10.00;99.90;;;;;;4954383;29;19970;-77
2022/12/29 10:37:09;;;;;;;;;;;11.40;99.90;;;;;;4937058;28;19952;-77
2022/12/29 10:39:40;;;;;;;;;;;11.50;99.90;;;;;;4949954;29;19958;-78
2022/12/29 10:42:17;;;;;;;;;;;11.70;99.90;;;;;;4961684;28;19913;-81
2022/12/29 10:44:42;;;;;;;;;;;11.90;99.90;;;;;;4960018;28;19906;-78
2022/12/29 10:47:13;;;;;;;;;;;12.10;99.90;;;;;;4975147;28;19910;-82
2022/12/29 10:49:42;;;;;;;;;;;12.10;99.90;;;;;;4958850;28;19917;-86
2022/12/29 10:52:09;;;;;;;;;;;12.20;99.90;;;;;;4942842;28;19969;-83
2022/12/29 10:54:53;;;;;;;;;;;12.30;99.90;;;;;;4958855;28;19913;-84
2022/12/29 10:57:33;;;;;;;;;;;12.30;99.90;;;;;;4958168;28;20054;-80
2022/12/29 10:59:59;;;;;;;;;;;12.40;99.90;;;;;;4958109;28;19929;-77
2022/12/29 11:02:40;;;;;;;;;;;12.40;99.90;;;;;;4953300;28;19908;-78
2022/12/29 11:05:18;;;;;;;;;;;13.10;99.90;;;;;;5040013;28;20006;-81
2022/12/29 11:07:46;;;;;;;;;;;12.20;99.90;;;;;;5021804;28;19911;-82
2022/12/29 11:10:30;;;;;;;;;;;12.40;99.90;;;;;;5041112;28;19949;-81
2022/12/29 11:13:15;;;;;;;;;;;12.70;99.90;;;;;;5039796;28;20479;-80
2022/12/29 11:15:59;;;;;;;;;;;13.90;99.90;;;;;;5054708;28;20032;-78
2022/12/29 11:18:26;;;;;;;;;;;13.30;99.90;;;;;;5040248;28;19959;-81
2022/12/29 11:20:59;;;;;;;;;;;11.90;99.90;;;;;;5039309;28;19974;-79
2022/12/29 11:23:24;;;;;;;;;;;13.30;99.90;;;;;;5021658;28;19900;-78
2022/12/29 11:26:07;;;;;;;;;;;13.40;99.90;;;;;;5021786;28;19911;-80
2022/12/29 11:28:33;;;;;;;;;;;13.40;99.90;;;;;;5039771;28;20444;-78
2022/12/29 11:30:59;;;;;;;;;;;13.50;99.90;;;;;;5039240;28;19919;-81
2022/12/29 11:33:27;;;;;;;;;;;13.60;99.90;;;;;;5039750;28;19911;-81
2022/12/29 11:35:56;;;;;;;;;;;13.80;99.90;;;;;;5041936;28;20374;-82
2022/12/29 11:38:24;;;;;;;;;;;14.00;99.90;;;;;;5043708;28;20551;-82
2022/12/29 11:40:55;;;;;;;;;;;14.00;99.90;;;;;;5024119;28;20559;-78
2022/12/29 11:43:24;;;;;;;;;;;14.20;99.90;;;;;;5045536;28;20390;-78
2022/12/29 11:45:52;;;;;;;;;;;14.50;99.90;;;;;;5043330;28;19904;-79
2022/12/29 11:48:20;;;;;;;;;;;14.30;99.90;;;;;;5042430;28;20071;-79
2022/12/29 11:51:05;;;;;;;;;;;14.50;99.90;;;;;;5056202;28;19978;-81
2022/12/29 11:53:31;;;;;;;;;;;14.60;99.90;;;;;;5040216;28;19900;-78
2022/12/29 11:55:59;;;;;;;;;;;14.70;99.90;;;;;;5039413;28;19940;-78
2022/12/29 11:58:32;;;;;;;;;;;14.70;99.90;;;;;;5039288;28;20003;-83
2022/12/29 12:01:10;;;;;;;;;;;14.80;99.90;;;;;;5039289;28;19921;-78
2022/12/29 12:03:37;;;;;;;;;;;14.50;99.90;;;;;;5038921;28;19904;-77
2022/12/29 12:06:03;;;;;;;;;;;14.50;99.90;;;;;;5039156;28;19905;-80
2022/12/29 12:08:47;;;;;;;;;;;14.40;99.90;;;;;;5053754;28;20003;-77
2022/12/29 12:11:18;;;;;;;;;;;14.30;99.90;;;;;;5020942;28;19905;-78
2022/12/29 12:13:53;;;;;;;;;;;14.00;99.90;;;;;;5038908;28;19905;-83
2022/12/29 12:16:21;;;;;;;;;;;14.20;99.90;;;;;;5038962;28;19905;-79
2022/12/29 12:18:52;;;;;;;;;;;14.00;99.90;;;;;;5039102;28;19956;-78
2022/12/29 12:21:21;;;;;;;;;;;13.80;99.90;;;;;;5021771;28;19939;-81
2022/12/29 12:24:15;;;;;;;;;;;13.70;99.90;;;;;;5038731;28;19901;-81
2022/12/29 12:26:55;;;;;;;;;;;13.70;99.90;;;;;;5015840;28;19912;-77
2022/12/29 12:29:24;;;;;;;;;;;13.60;99.90;;;;;;5038557;28;19909;-81
2022/12/29 12:31:50;;;;;;;;;;;13.60;99.90;;;;;;5041951;28;19920;-85
2022/12/29 12:34:30;;;;;;;;;;;13.60;99.90;;;;;;5039309;28;19905;-82
2022/12/29 12:37:14;;;;;;;;;;;13.80;99.90;;;;;;5021388;28;20027;-83
2022/12/29 12:39:58;;;;;;;;;;;13.70;99.90;;;;;;5038681;28;19913;-80
2022/12/29 12:42:54;;;;;;;;;;;13.70;99.90;;;;;;5039264;28;19970;-79
2022/12/29 12:45:29;;;;;;;;;;;13.50;99.90;;;;;;5039072;28;20034;-84
2022/12/29 12:48:16;;;;;;;;;;;13.40;99.90;;;;;;5039742;28;19912;-82
2022/12/29 12:50:44;;;;;;;;;;;13.70;99.90;;;;;;5018700;28;19916;-81
2022/12/29 12:53:40;;;;;;;;;;;13.30;99.90;;;;;;5021785;28;20003;-82
2022/12/29 12:56:24;;;;;;;;;;;13.20;99.90;;;;;;4975977;28;20558;-81
2022/12/29 12:59:03;;;;;;;;;;;12.90;99.90;;;;;;4975914;28;20560;-77
2022/12/29 13:01:47;;;;;;;;;;;13.00;99.90;;;;;;4959194;28;19960;-82
2022/12/29 13:04:12;;;;;;;;;;;12.90;99.90;;;;;;4993019;28;20526;-78
2022/12/29 13:06:56;;;;;;;;;;;12.00;99.90;;;;;;4977035;28;19996;-89
2022/12/29 13:09:28;;;;;;;;;;;12.50;99.90;;;;;;4997063;28;19902;-82
2022/12/29 13:12:13;;;;;;;;;;;12.80;99.90;;;;;;4979961;28;19913;-87
2022/12/29 13:14:55;;;;;;;;;;;12.60;99.90;;;;;;4977763;28;20132;-79
2022/12/29 13:17:24;;;;;;;;;;;12.50;99.90;;;;;;4976966;28;19917;-81
2022/12/29 13:19:49;;;;;;;;;;;12.50;99.90;;;;;;4977322;28;19909;-79
2022/12/29 13:22:27;;;;;;;;;;;12.50;99.90;;;;;;4981852;28;20612;-81
2022/12/29 13:25:01;;;;;;;;;;;12.50;99.90;;;;;;4978429;28;19996;-81
2022/12/29 13:27:33;;;;;;;;;;;12.30;99.90;;;;;;4978129;28;19997;-81
2022/12/29 13:30:08;;;;;;;;;;;12.30;99.90;;;;;;4977538;28;19913;-83
2022/12/29 13:32:34;;;;;;;;;;;12.30;99.90;;;;;;5009472;28;19913;-80
2022/12/29 13:35:20;;;;;;;;;;;12.30;99.90;;;;;;5040262;28;19980;-81
2022/12/29 13:38:10;;;;;;;;;;;12.20;99.90;;;;;;5046066;28;19909;-84
2022/12/29 13:40:38;;;;;;;;;;;12.20;99.90;;;;;;5024353;28;20543;-82
2022/12/29 13:43:04;;;;;;;;;;;12.20;99.90;;;;;;5037420;28;19929;-78
2022/12/29 13:45:32;;;;;;;;;;;12.10;99.90;;;;;;5023000;28;19905;-78
2022/12/29 13:48:14;;;;;;;;;;;12.10;99.90;;;;;;5019724;28;19905;-80
2022/12/29 13:50:40;;;;;;;;;;;12.10;99.90;;;;;;5020990;28;19967;-81
2022/12/29 13:53:15;;;;;;;;;;;12.10;99.90;;;;;;5003650;28;19905;-85
2022/12/29 13:55:49;;;;;;;;;;;12.10;99.90;;;;;;5003281;28;19963;-82
2022/12/29 13:58:23;;;;;;;;;;;12.10;99.90;;;;;;5021124;28;19917;-83
2022/12/29 14:00:56;;;;;;;;;;;12.00;99.90;;;;;;5019692;28;19913;-77
2022/12/29 14:03:41;;;;;;;;;;;12.10;99.90;;;;;;5019203;28;20593;-77
2022/12/29 14:06:22;;;;;;;;;;;12.30;99.90;;;;;;5019038;28;20016;-78
2022/12/29 14:08:48;;;;;;;;;;;12.40;99.90;;;;;;5017017;28;19925;-80
2022/12/29 14:11:15;;;;;;;;;;;12.50;99.90;;;;;;5000730;28;19913;-84
2022/12/29 14:13:43;;;;;;;;;;;12.70;99.90;;;;;;5021314;28;20419;-81
2022/12/29 14:16:12;;;;;;;;;;;12.80;99.90;;;;;;5022412;28;19920;-79
2022/12/29 14:18:42;;;;;;;;;;;13.00;99.90;;;;;;5005209;28;19913;-80
2022/12/29 14:21:10;;;;;;;;;;;13.30;99.90;;;;;;5022176;28;19932;-81
2022/12/29 14:23:39;;;;;;;;;;;13.20;99.90;;;;;;5022443;28;20118;-83
2022/12/29 14:26:05;;;;;;;;;;;13.30;99.90;;;;;;5021624;28;19944;-80
2022/12/29 14:28:32;;;;;;;;;;;13.30;99.90;;;;;;5022290;28;19952;-78
2022/12/29 14:30:59;;;;;;;;;;;13.40;99.90;;;;;;5021691;28;19945;-79
2022/12/29 14:33:26;;;;;;;;;;;13.50;99.90;;;;;;5021644;28;19959;-80
2022/12/29 14:35:52;;;;;;;;;;;13.50;99.90;;;;;;5021680;28;20338;-78
2022/12/29 14:38:20;;;;;;;;;;;13.30;99.90;;;;;;5004876;28;19909;-78
2022/12/29 14:40:47;;;;;;;;;;;13.20;99.90;;;;;;5021459;28;20355;-79
2022/12/29 14:43:20;;;;;;;;;;;13.10;99.90;;;;;;5021359;28;19913;-80
2022/12/29 14:45:52;;;;;;;;;;;12.90;99.90;;;;;;5021105;28;20074;-81
2022/12/29 14:48:38;;;;;;;;;;;12.70;99.90;;;;;;5021316;28;20559;-78
2022/12/29 14:51:17;;;;;;;;;;;12.50;99.90;;;;;;5020669;28;19920;-82
2022/12/29 14:53:42;;;;;;;;;;;12.30;99.90;;;;;;5021109;28;19905;-77
2022/12/29 14:56:10;;;;;;;;;;;12.10;99.90;;;;;;5021245;28;19905;-80
2022/12/29 14:58:43;;;;;;;;;;;11.90;99.90;;;;;;5021400;28;19917;-78
2022/12/29 15:01:31;;;;;;;;;;;11.80;99.90;;;;;;5021887;28;19913;-82
2022/12/29 15:03:57;;;;;;;;;;;11.60;99.90;;;;;;5021704;28;19905;-78
2022/12/29 15:06:24;;;;;;;;;;;11.40;99.90;;;;;;5021502;28;19905;-80
2022/12/29 15:09:09;;;;;;;;;;;11.40;99.90;;;;;;5022154;28;19982;-78
2022/12/29 15:11:35;;;;;;;;;;;11.40;99.90;;;;;;5023562;28;20586;-77
2022/12/29 15:14:00;;;;;;;;;;;11.30;99.90;;;;;;5023561;28;19905;-79
2022/12/29 15:16:26;;;;;;;;;;;11.20;99.90;;;;;;5025975;28;19909;-77
2022/12/29 15:18:52;;;;;;;;;;;11.20;99.90;;;;;;5026765;28;20411;-79